Fairdale, New York
Current Conditions -  °F | °C
As of 3:54 AM on Friday 19 Dec 2014 (Local Time) from KFZY Reporting Station
Overcast Overcast  
Wind Chill: 19°   Ceiling: 1600
Heat Index: 28°   Visibility: 10mi
Dew Point: 21°   Wind: 9mph
Humidity: 75%   Direction: 290°WNW
Pressure: 30.05"   Gusts: NA
Location:  43.3091°N, 76.5484°W
Report Text: KFZY 190854Z AUTO 29008KT 10SM OVC016 M02/M06 A3005 RMK AO2 SLP182 60001 T10221061 51009
Loading
Personal Weather Stations






























Interactive Weather Map New forecast layout! Learn more

10-Day Weather Forecast

Advertisements
Track Severe Weather on mobile